Main page
METAR-TAF:

METAR-TAF

Airports :

Wiener Neustadt, Austria

Wiener Neustadt East Airport

latitude: 47-50-36N, longitude: 016-15-29E, elevation: 272 m

Current weather observation

The report was made 10 hours and 59 minutes ago, at 18:00 UTC
Wind 16 kt from the Southwest
Temperature
Pressure

METAR: LOAN 231800Z 23016KT 17KM FEW040CU BKN060SC

Time: 06:59 (04:59 UTC)

Forecast

The report was made 12 hours and 56 minutes ago, at 16:03 UTC
Forecast valid from 23 at 16 UTC to 23 at 21 UTC
Wind 5 kt from the West/Southwest
Visibility 10 km or more
Few clouds at a height of 5000 ft
Scattered clouds at a height of 30000 ft
Probability 30% :
Temporary
from 23 at 16 UTC to 23 at 21 UTC
Wind 15 kt from the West/Northwest
Visibility: 4000 m
Few clouds at a height of 4000 ft, Cumulonimbus.
Scattered clouds at a height of 5000 ft
thunderstorm, rain

TAF: LOAN 231603Z 2316/2321 24005KT 9999 FEW050 SCT300 PROB30 TEMPO 2316/2321 29015KT 4000 TSRA FEW040CB SCT050

Weather observations and forecasts of more than 4000 airports (METAR and TAF reports).

The available stations are represented by yellow and red dots on the map.

Hover mouse over dot to see the name of the station.

Then click to see weather observations and forecasts.

To change the map : click on the green buttons with a black cross to zoom in, on the green button with a dash to zoom out, or on the green arrows for adjacent maps.


METAR-TAF: